createdAt,value
2018-09-12T00:01:53.306Z,23.06
2018-09-12T00:06:48.515Z,23.04
2018-09-12T00:09:16.063Z,22.96
2018-09-12T00:11:43.898Z,22.98
2018-09-12T00:14:11.986Z,22.86
2018-09-12T00:16:39.735Z,22.93
2018-09-12T00:19:08.055Z,22.87
2018-09-12T00:21:36.219Z,22.84
2018-09-12T00:24:04.015Z,22.86
2018-09-12T00:26:31.743Z,22.70
2018-09-12T00:28:59.491Z,22.64
2018-09-12T00:31:27.018Z,22.75
2018-09-12T00:33:54.965Z,22.76
2018-09-12T00:36:22.935Z,22.73
2018-09-12T00:38:50.168Z,22.73
2018-09-12T00:41:18.294Z,22.73
2018-09-12T00:43:45.959Z,22.68
2018-09-12T00:46:13.863Z,22.72
2018-09-12T00:48:41.579Z,22.59
2018-09-12T00:51:09.291Z,22.67
2018-09-12T00:53:36.982Z,22.56
2018-09-12T00:58:16.734Z,22.36
2018-09-12T01:00:44.455Z,22.50
2018-09-12T01:03:12.031Z,22.54
2018-09-12T01:05:41.822Z,22.42
2018-09-12T01:08:10.902Z,22.40
2018-09-12T01:10:38.651Z,22.47
2018-09-12T01:13:06.386Z,22.49
2018-09-12T01:15:34.020Z,22.39
2018-09-12T01:18:01.854Z,22.38
2018-09-12T01:20:29.568Z,22.34
2018-09-12T01:22:57.165Z,22.28
2018-09-12T01:25:24.939Z,22.27
2018-09-12T01:27:56.039Z,22.26
2018-09-12T01:30:23.976Z,22.16
2018-09-12T01:32:53.980Z,22.21
2018-09-12T01:35:21.562Z,22.30
2018-09-12T01:37:49.663Z,22.16
2018-09-12T01:40:17.549Z,22.26
2018-09-12T01:42:45.519Z,22.23
2018-09-12T01:45:15.530Z,22.26
2018-09-12T01:47:43.376Z,22.31
2018-09-12T01:50:11.015Z,22.22
2018-09-12T01:52:38.816Z,22.13
2018-09-12T01:55:06.582Z,22.23
2018-09-12T01:57:34.295Z,22.36
2018-09-12T02:00:01.488Z,22.26
2018-09-12T02:02:29.296Z,22.08
2018-09-12T02:04:56.960Z,22.21
2018-09-12T02:07:24.627Z,22.18
2018-09-12T02:09:52.414Z,22.19
2018-09-12T02:12:20.010Z,22.14
2018-09-12T02:14:47.222Z,22.05
2018-09-12T02:17:14.927Z,22.09
2018-09-12T02:19:42.667Z,22.15
2018-09-12T02:22:10.538Z,22.01
2018-09-12T02:24:38.547Z,21.99
2018-09-12T02:27:06.178Z,22.03
2018-09-12T02:29:34.003Z,22.10
2018-09-12T02:32:01.187Z,22.17
2018-09-12T02:34:28.843Z,22.02
2018-09-12T02:36:56.719Z,22.10
2018-09-12T02:39:24.495Z,22.19
2018-09-12T02:41:52.053Z,22.14
2018-09-12T02:44:19.958Z,22.14
2018-09-12T02:48:58.979Z,22.06
2018-09-12T02:51:26.592Z,22.07
2018-09-12T02:53:54.439Z,21.95
2018-09-12T02:56:22.028Z,21.94
2018-09-12T02:58:49.337Z,21.96
2018-09-12T03:01:16.942Z,21.94
2018-09-12T03:03:44.725Z,21.86
2018-09-12T03:06:12.959Z,21.81
2018-09-12T03:08:41.007Z,21.80
2018-09-12T03:11:09.303Z,21.79
2018-09-12T03:13:36.986Z,22.01
2018-09-12T03:16:04.840Z,21.80
2018-09-12T03:18:32.615Z,21.77
2018-09-12T03:21:00.444Z,21.68
2018-09-12T03:23:27.499Z,21.71
2018-09-12T03:25:55.022Z,21.67
2018-09-12T03:28:22.303Z,21.65
2018-09-12T03:30:50.309Z,21.72
2018-09-12T03:33:17.874Z,21.67
2018-09-12T03:35:45.858Z,21.62
2018-09-12T03:38:13.567Z,21.56
2018-09-12T03:40:41.218Z,21.55
2018-09-12T03:43:08.747Z,21.65
2018-09-12T03:45:36.309Z,21.61
2018-09-12T03:48:04.070Z,21.48
2018-09-12T03:50:31.640Z,21.36
2018-09-12T03:52:59.413Z,21.53
2018-09-12T03:55:26.999Z,21.59
2018-09-12T03:57:54.752Z,21.57
2018-09-12T04:00:22.459Z,21.67
2018-09-12T04:02:50.376Z,21.45
2018-09-12T04:05:17.975Z,21.44
2018-09-12T04:07:45.752Z,21.53
2018-09-12T04:10:13.574Z,21.58
2018-09-12T04:12:41.179Z,21.82
2018-09-12T04:15:08.875Z,21.73
2018-09-12T04:17:36.979Z,21.65
2018-09-12T04:20:04.991Z,21.53
2018-09-12T04:22:32.582Z,21.59
2018-09-12T04:25:00.202Z,21.57
2018-09-12T04:27:27.787Z,21.62
2018-09-12T04:31:56.014Z,21.43
2018-09-12T04:34:23.762Z,21.55
2018-09-12T04:36:51.516Z,21.44
2018-09-12T04:39:19.822Z,21.38
2018-09-12T04:41:47.863Z,21.37
2018-09-12T04:44:15.872Z,21.26
2018-09-12T04:46:44.515Z,21.26
2018-09-12T04:49:12.324Z,21.27
2018-09-12T04:51:39.909Z,21.23
2018-09-12T04:54:07.598Z,21.34
2018-09-12T04:56:35.447Z,21.23
2018-09-12T04:59:02.785Z,21.35
2018-09-12T05:01:30.991Z,21.20
2018-09-12T05:03:58.604Z,21.17
2018-09-12T05:06:26.493Z,22.08
2018-09-12T05:08:53.670Z,21.37
2018-09-12T05:11:21.438Z,21.21
2018-09-12T05:13:49.455Z,21.37
2018-09-12T05:16:17.010Z,21.15
2018-09-12T05:18:44.655Z,21.09
2018-09-12T05:21:12.298Z,21.12
2018-09-12T05:23:39.889Z,21.15
2018-09-12T05:26:08.677Z,21.16
2018-09-12T05:28:36.454Z,21.27
2018-09-12T05:31:04.193Z,21.34
2018-09-12T05:35:55.638Z,21.23
2018-09-12T05:38:23.335Z,21.17
2018-09-12T05:40:51.163Z,21.13
2018-09-12T05:43:18.861Z,21.24
2018-09-12T05:45:46.703Z,21.33
2018-09-12T05:48:14.468Z,21.31
2018-09-12T05:50:42.181Z,21.37
2018-09-12T05:53:09.879Z,21.26
2018-09-12T05:55:37.605Z,21.29
2018-09-12T05:58:05.197Z,21.14
2018-09-12T06:00:33.223Z,21.17
2018-09-12T06:03:00.915Z,21.12
2018-09-12T06:05:28.623Z,21.28
2018-09-12T06:07:56.464Z,21.22
2018-09-12T06:10:24.221Z,21.21
2018-09-12T06:12:51.887Z,21.23
2018-09-12T06:18:02.591Z,21.19
2018-09-12T06:20:30.383Z,21.14
2018-09-12T06:22:58.201Z,21.08
2018-09-12T06:25:25.935Z,21.04
2018-09-12T06:27:53.659Z,20.97
2018-09-12T06:30:21.434Z,21.03
2018-09-12T06:32:49.025Z,21.18
2018-09-12T06:35:16.966Z,21.12
2018-09-12T06:37:44.423Z,21.08
2018-09-12T06:40:12.031Z,21.06
2018-09-12T06:42:39.735Z,21.12
2018-09-12T06:45:07.663Z,21.13
2018-09-12T06:47:35.544Z,21.09
2018-09-12T06:50:03.294Z,20.90
2018-09-12T06:52:30.499Z,21.23
2018-09-12T06:54:58.163Z,21.34
2018-09-12T06:57:25.971Z,21.29
2018-09-12T06:59:53.620Z,21.28
2018-09-12T07:02:20.876Z,21.31
2018-09-12T07:04:48.645Z,21.35
2018-09-12T07:07:16.518Z,21.26
2018-09-12T07:09:44.362Z,21.33
2018-09-12T07:12:11.995Z,21.31
2018-09-12T07:14:39.291Z,21.23
2018-09-12T07:17:06.923Z,21.37
2018-09-12T07:19:35.052Z,21.35
2018-09-12T07:22:02.733Z,21.39
2018-09-12T07:24:30.650Z,21.46
2018-09-12T07:26:58.410Z,21.48
2018-09-12T07:29:25.583Z,21.47
2018-09-12T07:31:53.451Z,21.60
2018-09-12T07:34:21.054Z,21.62
2018-09-12T07:36:48.830Z,21.62
2018-09-12T07:39:16.597Z,21.69
2018-09-12T07:41:44.381Z,21.71
2018-09-12T07:44:11.966Z,21.74
2018-09-12T07:46:39.795Z,21.78
2018-09-12T07:49:07.732Z,21.83
2018-09-12T07:51:35.537Z,21.83
2018-09-12T07:54:03.307Z,21.81
2018-09-12T07:56:30.546Z,21.88
2018-09-12T07:58:58.159Z,21.89
2018-09-12T08:01:25.967Z,21.93
2018-09-12T08:03:53.739Z,21.96
2018-09-12T08:06:21.574Z,21.98
2018-09-12T08:08:49.494Z,22.01
2018-09-12T08:11:17.555Z,22.03
2018-09-12T08:13:45.192Z,22.07
2018-09-12T08:16:12.920Z,22.11
2018-09-12T08:18:40.603Z,22.16
2018-09-12T08:21:09.459Z,22.17
2018-09-12T08:23:37.590Z,22.21
2018-09-12T08:26:05.354Z,22.24
2018-09-12T08:28:33.017Z,22.28
2018-09-12T08:31:00.735Z,22.28
2018-09-12T08:33:28.580Z,22.32
2018-09-12T08:35:57.072Z,22.38
2018-09-12T08:38:24.757Z,22.42
2018-09-12T08:40:52.571Z,22.46
2018-09-12T08:43:20.484Z,22.49
2018-09-12T08:45:48.197Z,22.55
2018-09-12T08:48:15.982Z,22.58
2018-09-12T08:50:46.815Z,22.61
2018-09-12T08:53:14.892Z,22.62
2018-09-12T08:55:42.604Z,22.67
2018-09-12T08:58:10.427Z,22.71
2018-09-12T09:00:38.126Z,22.71
2018-09-12T09:03:06.583Z,22.78
2018-09-12T09:05:34.298Z,22.82
2018-09-12T09:08:01.502Z,22.85
2018-09-12T09:10:29.112Z,22.87
2018-09-12T09:12:57.379Z,22.95
2018-09-12T09:15:25.971Z,22.97
2018-09-12T09:17:53.201Z,23.01
2018-09-12T09:20:20.943Z,23.01
2018-09-12T09:22:48.700Z,23.05
2018-09-12T09:25:16.700Z,23.10
2018-09-12T09:27:44.731Z,23.11
2018-09-12T09:30:12.547Z,23.14
2018-09-12T09:32:40.230Z,23.19
2018-09-12T09:35:08.456Z,23.25
2018-09-12T09:37:36.201Z,23.27
2018-09-12T09:40:04.585Z,23.34
2018-09-12T09:42:32.075Z,23.35
2018-09-12T09:44:59.734Z,23.36
2018-09-12T09:47:27.646Z,23.40
2018-09-12T09:49:56.579Z,23.41
2018-09-12T09:52:25.699Z,23.43
2018-09-12T09:54:53.624Z,23.50
2018-09-12T09:57:21.755Z,23.53
2018-09-12T09:59:49.645Z,23.56
2018-09-12T10:02:18.290Z,23.56
2018-09-12T10:04:51.734Z,23.61
2018-09-12T10:07:25.544Z,23.63
2018-09-12T10:10:08.504Z,23.66
2018-09-12T10:12:36.307Z,23.68
2018-09-12T10:15:04.991Z,23.74
2018-09-12T10:17:33.575Z,23.79
2018-09-12T10:20:01.312Z,23.80
2018-09-12T10:22:29.963Z,23.84
2018-09-12T10:26:59.994Z,23.88
2018-09-12T10:29:27.627Z,23.92
2018-09-12T10:31:55.491Z,23.94
2018-09-12T10:34:23.332Z,23.95
2018-09-12T10:36:50.994Z,23.98
2018-09-12T10:39:18.667Z,23.97
2018-09-12T10:41:46.434Z,24.08
2018-09-12T10:44:14.306Z,24.10
2018-09-12T10:46:41.920Z,24.08
2018-09-12T10:49:09.579Z,24.16
2018-09-12T10:51:37.411Z,24.17
2018-09-12T10:54:05.019Z,24.21
2018-09-12T10:56:32.302Z,24.24
2018-09-12T10:59:00.099Z,24.24
2018-09-12T11:01:27.815Z,24.25
2018-09-12T11:03:55.522Z,24.27
2018-09-12T11:06:23.209Z,24.30
2018-09-12T11:08:51.017Z,24.31
2018-09-12T11:11:18.730Z,24.39
2018-09-12T11:13:46.600Z,24.40
2018-09-12T11:16:14.438Z,24.41
2018-09-12T11:18:42.019Z,24.44
2018-09-12T11:21:09.183Z,24.46
2018-09-12T11:23:36.936Z,24.48
2018-09-12T11:26:04.623Z,24.49
2018-09-12T11:28:32.311Z,24.54
2018-09-12T11:30:59.895Z,24.58
2018-09-12T11:33:27.701Z,24.60
2018-09-12T11:35:55.466Z,24.62
2018-09-12T11:38:23.168Z,24.61
2018-09-12T11:40:50.918Z,24.63
2018-09-12T11:43:18.619Z,24.67
2018-09-12T11:45:46.329Z,24.70
2018-09-12T11:48:14.210Z,24.77
2018-09-12T11:50:41.735Z,24.77
2018-09-12T11:53:09.431Z,24.77
2018-09-12T11:55:37.200Z,24.79
2018-09-12T11:58:04.901Z,24.84
2018-09-12T12:00:32.803Z,24.84
2018-09-12T12:03:00.511Z,24.86
2018-09-12T12:05:28.516Z,24.90
2018-09-12T12:07:56.303Z,24.90
2018-09-12T12:10:24.141Z,24.90
2018-09-12T12:12:51.738Z,24.92
2018-09-12T12:15:19.577Z,24.92
2018-09-12T12:17:46.655Z,24.93
2018-09-12T12:20:14.307Z,25.03
2018-09-12T12:22:41.887Z,25.04
2018-09-12T12:25:09.738Z,25.05
2018-09-12T12:27:37.604Z,25.08
2018-09-12T12:30:05.472Z,25.08
2018-09-12T12:32:33.086Z,25.09
2018-09-12T12:35:00.868Z,25.13
2018-09-12T12:37:28.591Z,25.13
2018-09-12T12:39:56.074Z,25.14
2018-09-12T12:42:23.837Z,25.17
2018-09-12T12:44:51.758Z,25.22
2018-09-12T12:47:19.495Z,25.26
2018-09-12T12:49:47.037Z,25.18
2018-09-12T12:52:14.337Z,25.29
2018-09-12T12:54:41.931Z,25.32
2018-09-12T12:57:09.582Z,25.31
2018-09-12T12:59:37.072Z,25.34
2018-09-12T13:02:04.887Z,25.42
2018-09-12T13:04:32.578Z,25.46
2018-09-12T13:07:00.181Z,25.44
2018-09-12T13:09:27.763Z,25.47
2018-09-12T13:11:55.479Z,25.46
2018-09-12T13:14:22.627Z,25.43
2018-09-12T13:16:50.461Z,25.47
2018-09-12T13:19:18.023Z,25.48
2018-09-12T13:21:45.902Z,25.49
2018-09-12T13:24:13.469Z,25.52
2018-09-12T13:26:41.032Z,25.59
2018-09-12T13:29:08.220Z,25.65
2018-09-12T13:31:35.954Z,25.57
2018-09-12T13:34:03.784Z,25.66
2018-09-12T13:36:31.471Z,25.63
2018-09-12T13:38:59.051Z,25.65
2018-09-12T13:41:26.747Z,25.67
2018-09-12T13:43:54.467Z,25.67
2018-09-12T13:46:22.018Z,25.66
2018-09-12T13:48:49.843Z,25.67
2018-09-12T13:51:17.619Z,25.68
2018-09-12T13:53:45.360Z,25.72
2018-09-12T13:56:13.027Z,25.74
2018-09-12T13:58:40.851Z,25.74
2018-09-12T14:01:08.659Z,25.75
2018-09-12T14:03:36.466Z,25.70
2018-09-12T14:06:04.059Z,25.71
2018-09-12T14:08:31.747Z,25.71
2018-09-12T14:10:59.475Z,25.71
2018-09-12T14:13:27.311Z,25.74
2018-09-12T14:15:54.954Z,25.75
2018-09-12T14:18:22.611Z,25.76
2018-09-12T14:20:50.324Z,25.77
2018-09-12T14:23:17.900Z,25.76
2018-09-12T14:25:45.642Z,25.81
2018-09-12T14:28:20.613Z,25.82
2018-09-12T14:30:48.346Z,25.86
2018-09-12T14:33:15.582Z,25.86
2018-09-12T14:35:43.332Z,25.89
2018-09-12T14:38:10.987Z,25.89
2018-09-12T14:40:38.671Z,25.92
2018-09-12T14:43:06.589Z,25.93
2018-09-12T14:45:34.311Z,25.97
2018-09-12T14:48:02.095Z,26.01
2018-09-12T14:50:29.853Z,26.02
2018-09-12T14:52:57.591Z,26.05
2018-09-12T14:55:25.075Z,26.05
2018-09-12T14:57:52.696Z,26.09
2018-09-12T15:00:26.372Z,26.11
2018-09-12T15:02:54.978Z,26.14
2018-09-12T15:05:22.205Z,26.17
2018-09-12T15:07:49.902Z,26.17
2018-09-12T15:10:17.911Z,26.20
2018-09-12T15:12:46.042Z,26.23
2018-09-12T15:15:13.995Z,26.26
2018-09-12T15:17:42.986Z,26.29
2018-09-12T15:20:10.762Z,26.33
2018-09-12T15:22:38.642Z,26.34
2018-09-12T15:25:06.307Z,26.39
2018-09-12T15:27:33.887Z,26.41
2018-09-12T15:30:01.668Z,26.42
2018-09-12T15:32:29.485Z,26.44
2018-09-12T15:34:57.040Z,26.48
2018-09-12T15:37:24.883Z,26.48
2018-09-12T15:39:53.608Z,26.60
2018-09-12T15:42:21.420Z,26.74
2018-09-12T15:44:49.063Z,26.83
2018-09-12T15:47:16.894Z,26.81
2018-09-12T15:49:44.974Z,26.85
2018-09-12T15:52:12.859Z,26.86
2018-09-12T15:54:41.335Z,26.87
2018-09-12T15:57:09.316Z,26.87
2018-09-12T15:59:36.927Z,26.89
2018-09-12T16:02:04.067Z,26.89
2018-09-12T16:04:32.400Z,26.92
2018-09-12T16:07:00.038Z,26.94
2018-09-12T16:09:27.710Z,26.96
2018-09-12T16:11:55.743Z,26.98
2018-09-12T16:14:23.487Z,27.00
2018-09-12T16:16:51.254Z,27.09
2018-09-12T16:19:18.740Z,27.05
2018-09-12T16:21:46.452Z,27.04
2018-09-12T16:24:14.063Z,27.05
2018-09-12T16:26:41.870Z,27.08
2018-09-12T16:29:10.181Z,27.08
2018-09-12T16:31:37.822Z,27.11
2018-09-12T16:34:05.699Z,27.14
2018-09-12T16:36:33.658Z,27.09
2018-09-12T16:39:01.526Z,27.03
2018-09-12T16:41:29.334Z,27.04
2018-09-12T16:43:56.578Z,27.10
2018-09-12T16:46:24.488Z,27.16
2018-09-12T16:48:52.063Z,27.17
2018-09-12T16:51:19.790Z,27.13
2018-09-12T16:53:47.735Z,27.13
2018-09-12T16:56:15.589Z,27.12
2018-09-12T16:58:43.165Z,27.11
2018-09-12T17:01:10.367Z,27.09
2018-09-12T17:03:38.007Z,27.07
2018-09-12T17:06:05.839Z,27.08
2018-09-12T17:08:33.731Z,27.06
2018-09-12T17:11:01.512Z,27.02
2018-09-12T17:13:29.289Z,27.01
2018-09-12T17:15:57.015Z,27.03
2018-09-12T17:18:24.868Z,27.01
2018-09-12T17:20:52.822Z,27.02
2018-09-12T17:23:20.642Z,26.99
2018-09-12T17:25:48.123Z,26.97
2018-09-12T17:28:15.881Z,26.96
2018-09-12T17:30:43.816Z,26.94
2018-09-12T17:33:11.815Z,26.90
2018-09-12T17:35:39.581Z,26.87
2018-09-12T17:38:07.450Z,26.85
2018-09-12T17:40:35.142Z,26.82
2018-09-12T17:43:02.739Z,26.76
2018-09-12T17:45:30.490Z,26.76
2018-09-12T17:47:57.858Z,26.73
2018-09-12T17:50:25.572Z,26.85
2018-09-12T17:52:53.299Z,26.95
2018-09-12T17:55:20.505Z,26.93
2018-09-12T17:57:48.046Z,26.91
2018-09-12T18:00:15.638Z,26.87
2018-09-12T18:02:43.428Z,26.84
2018-09-12T18:05:10.978Z,26.90
2018-09-12T18:07:38.370Z,26.90
2018-09-12T18:10:06.439Z,26.90
2018-09-12T18:12:34.040Z,26.89
2018-09-12T18:15:01.740Z,26.88
2018-09-12T18:17:29.499Z,26.89
2018-09-12T18:19:57.022Z,26.87
2018-09-12T18:22:24.873Z,26.85
2018-09-12T18:24:52.661Z,26.85
2018-09-12T18:27:20.375Z,26.82
2018-09-12T18:29:47.966Z,26.83
2018-09-12T18:32:15.663Z,26.88
2018-09-12T18:34:43.294Z,26.91
2018-09-12T18:37:10.880Z,26.92
2018-09-12T18:39:38.670Z,26.92
2018-09-12T18:42:06.585Z,26.91
2018-09-12T18:44:34.387Z,26.93
2018-09-12T18:47:01.966Z,26.93
2018-09-12T18:49:29.859Z,26.92
2018-09-12T18:51:57.702Z,26.94
2018-09-12T18:54:25.446Z,26.97
2018-09-12T18:56:53.064Z,26.97
2018-09-12T18:59:20.920Z,26.98
2018-09-12T19:01:48.576Z,26.99
2018-09-12T19:04:16.191Z,27.00
2018-09-12T19:06:44.020Z,26.99
2018-09-12T19:09:12.359Z,27.00
2018-09-12T19:11:40.020Z,26.99
2018-09-12T19:14:07.974Z,26.97
2018-09-12T19:16:35.745Z,26.99
2018-09-12T19:19:03.447Z,26.99
2018-09-12T19:22:47.984Z,27.01
2018-09-12T19:25:15.654Z,27.01
2018-09-12T19:27:43.010Z,26.99
2018-09-12T19:30:10.822Z,26.96
2018-09-12T19:32:38.569Z,26.95
2018-09-12T19:35:06.208Z,26.93
2018-09-12T19:37:34.166Z,26.91
2018-09-12T19:40:02.027Z,26.89
2018-09-12T19:42:30.024Z,26.90
2018-09-12T19:44:57.729Z,26.89
2018-09-12T19:47:25.534Z,26.88
2018-09-12T19:49:53.293Z,26.88
2018-09-12T19:52:21.208Z,26.86
2018-09-12T19:54:48.906Z,26.86
2018-09-12T19:57:17.752Z,26.85
2018-09-12T19:59:45.563Z,26.82
2018-09-12T20:02:23.611Z,26.80
2018-09-12T20:04:51.522Z,26.80
2018-09-12T20:07:18.849Z,26.79
2018-09-12T20:09:46.688Z,26.78
2018-09-12T20:12:14.482Z,26.78
2018-09-12T20:14:42.027Z,26.77
2018-09-12T20:17:09.830Z,26.76
2018-09-12T20:19:37.974Z,26.77
2018-09-12T20:22:56.718Z,26.76
2018-09-12T20:25:24.626Z,26.75
2018-09-12T20:27:52.314Z,26.74
2018-09-12T20:30:19.995Z,26.73
2018-09-12T20:32:47.061Z,26.67
2018-09-12T20:35:14.859Z,26.73
2018-09-12T20:38:14.479Z,26.73
2018-09-12T20:40:42.115Z,26.69
2018-09-12T20:43:09.748Z,26.70
2018-09-12T20:45:37.706Z,26.71
2018-09-12T20:48:05.532Z,26.70
2018-09-12T20:51:09.739Z,26.67
2018-09-12T20:53:37.498Z,26.76
2018-09-12T20:56:05.570Z,26.77
2018-09-12T20:58:33.493Z,26.80
2018-09-12T21:01:01.192Z,26.78
2018-09-12T21:03:28.963Z,26.77
2018-09-12T21:05:56.631Z,26.78
2018-09-12T21:08:24.573Z,26.78
2018-09-12T21:10:52.406Z,26.77
2018-09-12T21:13:19.955Z,26.77
2018-09-12T21:15:47.834Z,26.71
2018-09-12T21:18:15.613Z,26.79
2018-09-12T21:20:43.297Z,26.81
2018-09-12T21:23:11.510Z,26.81
2018-09-12T21:25:39.062Z,26.83
2018-09-12T21:28:06.909Z,26.82
2018-09-12T21:30:35.001Z,26.86
2018-09-12T21:33:02.769Z,26.77
2018-09-12T21:35:30.565Z,26.84
2018-09-12T21:37:58.184Z,26.84
2018-09-12T21:40:25.822Z,26.84
2018-09-12T21:42:53.567Z,26.84
2018-09-12T21:45:22.169Z,26.83
2018-09-12T21:47:49.954Z,26.81
2018-09-12T21:50:17.602Z,26.83
2018-09-12T21:52:45.306Z,26.84
2018-09-12T21:55:13.004Z,26.86
2018-09-12T21:57:40.654Z,26.87
2018-09-12T22:00:08.839Z,26.87
2018-09-12T22:02:36.588Z,26.85
2018-09-12T22:05:04.971Z,26.83
2018-09-12T22:07:32.785Z,26.83
2018-09-12T22:10:00.499Z,26.81
2018-09-12T22:12:28.131Z,26.81
2018-09-12T22:14:55.766Z,26.81
2018-09-12T22:17:23.572Z,26.85
2018-09-12T22:19:50.641Z,26.87
2018-09-12T22:22:18.510Z,26.89
2018-09-12T22:24:46.379Z,26.89
2018-09-12T22:27:20.951Z,26.88
2018-09-12T22:29:48.828Z,26.88
2018-09-12T22:32:16.785Z,26.89
2018-09-12T22:34:44.010Z,26.89
2018-09-12T22:37:11.634Z,26.90
2018-09-12T22:39:39.375Z,26.89
2018-09-12T22:42:07.174Z,26.90
2018-09-12T22:44:35.019Z,26.90
2018-09-12T22:47:02.726Z,26.91
2018-09-12T22:49:30.578Z,26.90
2018-09-12T22:51:58.239Z,26.89
2018-09-12T22:54:25.967Z,26.89
2018-09-12T22:56:53.418Z,26.93
2018-09-12T22:59:21.407Z,26.93
2018-09-12T23:01:49.300Z,26.93
2018-09-12T23:04:17.191Z,26.92
2018-09-12T23:07:45.731Z,26.93
2018-09-12T23:10:13.594Z,26.92
2018-09-12T23:14:42.025Z,26.83
2018-09-12T23:17:09.835Z,26.82
2018-09-12T23:19:37.038Z,26.78
2018-09-12T23:22:05.175Z,26.76
2018-09-12T23:24:32.940Z,26.75
2018-09-12T23:27:00.638Z,26.73
2018-09-12T23:29:28.577Z,26.73
2018-09-12T23:31:56.305Z,26.71
2018-09-12T23:34:24.177Z,26.69
2018-09-12T23:36:51.926Z,26.67
2018-09-12T23:39:19.744Z,26.66
2018-09-12T23:41:47.535Z,26.67
2018-09-12T23:44:15.197Z,26.65
2018-09-12T23:46:42.919Z,26.63
2018-09-12T23:49:10.737Z,26.63
2018-09-12T23:51:38.815Z,26.61
2018-09-12T23:54:06.784Z,26.61
2018-09-12T23:56:34.670Z,26.59
2018-09-12T23:59:02.603Z,26.59
